createdAt,value
2022-12-31T00:01:35.312Z,8.47
2022-12-31T00:06:37.147Z,8.36
2022-12-31T00:11:39.095Z,8.32
2022-12-31T00:16:42.973Z,8.34
2022-12-31T00:21:45.039Z,8.36
2022-12-31T00:26:47.079Z,8.50
2022-12-31T00:31:50.388Z,8.57
2022-12-31T00:36:52.784Z,8.52
2022-12-31T00:41:54.749Z,8.42
2022-12-31T00:46:58.080Z,8.38
2022-12-31T00:52:00.123Z,8.31
2022-12-31T00:57:02.073Z,8.37
2022-12-31T01:02:05.563Z,8.39
2022-12-31T01:07:07.655Z,8.40
2022-12-31T01:12:09.644Z,8.44
2022-12-31T01:17:13.628Z,8.46
2022-12-31T01:22:15.774Z,8.51
2022-12-31T01:27:17.806Z,8.58
2022-12-31T01:32:21.106Z,8.60
2022-12-31T01:37:22.964Z,8.58
2022-12-31T01:42:24.924Z,8.53
2022-12-31T01:47:38.199Z,8.42
2022-12-31T01:52:42.367Z,8.34
2022-12-31T01:57:46.923Z,8.15
2022-12-31T02:02:50.945Z,8.31
2022-12-31T02:07:54.096Z,8.24
2022-12-31T02:12:56.194Z,8.32
2022-12-31T02:18:11.814Z,8.37
2022-12-31T02:23:39.889Z,8.45
2022-12-31T02:29:05.652Z,8.41
2022-12-31T02:34:13.834Z,8.41
2022-12-31T02:39:16.575Z,8.48
2022-12-31T02:44:26.329Z,8.38
2022-12-31T02:49:40.786Z,8.18
2022-12-31T02:54:51.248Z,8.02
2022-12-31T03:00:16.174Z,7.96
2022-12-31T03:05:23.856Z,7.91
2022-12-31T03:10:25.966Z,7.90
2022-12-31T03:15:29.756Z,7.95
2022-12-31T03:20:53.690Z,7.93
2022-12-31T03:25:57.020Z,7.97
2022-12-31T03:31:00.090Z,7.94
2022-12-31T03:36:05.454Z,7.89
2022-12-31T03:41:10.490Z,7.98
2022-12-31T03:46:12.445Z,8.00
2022-12-31T03:51:16.703Z,8.11
2022-12-31T03:56:18.653Z,8.09
2022-12-31T04:01:24.229Z,7.96
2022-12-31T04:06:27.597Z,8.02
2022-12-31T04:11:29.385Z,7.94
2022-12-31T04:16:32.228Z,7.87
2022-12-31T04:21:35.767Z,7.87
2022-12-31T04:26:38.331Z,7.79
2022-12-31T04:31:40.391Z,7.78
2022-12-31T04:36:43.727Z,7.86
2022-12-31T04:41:45.545Z,7.84
2022-12-31T04:46:47.781Z,7.71
2022-12-31T04:51:51.096Z,7.89
2022-12-31T04:56:53.087Z,7.85
2022-12-31T05:01:55.273Z,7.90
2022-12-31T05:06:58.897Z,7.92
2022-12-31T05:12:00.852Z,7.88
2022-12-31T05:17:02.858Z,7.98
2022-12-31T05:22:24.944Z,8.02
2022-12-31T05:27:30.994Z,8.09
2022-12-31T05:32:33.637Z,7.91
2022-12-31T05:37:37.030Z,7.85
2022-12-31T05:42:39.117Z,7.88
2022-12-31T05:47:41.230Z,7.91
2022-12-31T05:52:47.596Z,7.78
2022-12-31T05:57:49.814Z,7.67
2022-12-31T06:02:51.880Z,7.61
2022-12-31T06:07:55.613Z,7.48
2022-12-31T06:12:57.592Z,7.36
2022-12-31T06:17:59.590Z,7.51
2022-12-31T06:23:03.358Z,7.54
2022-12-31T06:28:06.025Z,7.63
2022-12-31T06:33:08.144Z,7.60
2022-12-31T06:38:11.467Z,7.66
2022-12-31T06:43:13.459Z,7.67
2022-12-31T06:48:15.579Z,7.75
2022-12-31T06:53:18.900Z,7.74
2022-12-31T06:58:20.953Z,7.69
2022-12-31T07:03:34.059Z,7.80
2022-12-31T07:08:49.955Z,7.74
2022-12-31T07:14:09.771Z,7.74
2022-12-31T07:19:23.786Z,7.92
2022-12-31T07:24:28.371Z,8.00
2022-12-31T07:29:38.667Z,7.98
2022-12-31T07:34:50.853Z,8.16
2022-12-31T07:40:03.456Z,8.39
2022-12-31T07:45:16.126Z,8.40
2022-12-31T07:50:19.583Z,8.47
2022-12-31T07:55:22.996Z,8.53
2022-12-31T08:00:25.995Z,8.58
2022-12-31T08:05:33.880Z,8.67
2022-12-31T08:10:42.314Z,8.81
2022-12-31T08:15:44.642Z,9.02
2022-12-31T08:20:57.946Z,9.18
2022-12-31T08:26:16.238Z,9.47
2022-12-31T08:31:21.162Z,9.81
2022-12-31T08:36:31.866Z,9.61
2022-12-31T08:41:43.079Z,9.72
2022-12-31T08:46:55.133Z,9.81
2022-12-31T08:51:57.987Z,9.79
2022-12-31T08:57:16.808Z,10.10
2022-12-31T09:02:35.569Z,10.34
2022-12-31T09:07:45.510Z,10.46
2022-12-31T09:12:54.013Z,10.43
2022-12-31T09:17:56.606Z,10.45
2022-12-31T09:23:01.074Z,10.37
2022-12-31T09:28:17.688Z,10.24
2022-12-31T09:33:31.323Z,10.47
2022-12-31T09:38:40.594Z,10.67
2022-12-31T09:44:17.841Z,10.49
2022-12-31T09:49:52.773Z,10.49
2022-12-31T09:55:13.381Z,10.34
2022-12-31T10:00:22.041Z,10.31
2022-12-31T10:05:38.939Z,10.31
2022-12-31T10:10:50.029Z,10.49
2022-12-31T10:16:09.849Z,10.53
2022-12-31T10:21:28.404Z,10.58
2022-12-31T10:26:49.813Z,10.46
2022-12-31T10:32:11.023Z,10.60
2022-12-31T10:37:16.825Z,10.77
2022-12-31T10:42:56.200Z,11.00
2022-12-31T10:48:29.623Z,11.07
2022-12-31T10:53:55.802Z,11.07
2022-12-31T10:59:36.381Z,11.04
2022-12-31T11:05:04.487Z,11.02
2022-12-31T11:10:25.057Z,10.97
2022-12-31T11:15:50.244Z,11.05
2022-12-31T11:21:08.895Z,11.19
2022-12-31T11:26:22.817Z,11.19
2022-12-31T11:31:36.667Z,11.34
2022-12-31T11:36:47.375Z,11.36
2022-12-31T11:41:52.383Z,11.35
2022-12-31T11:47:06.539Z,11.36
2022-12-31T11:52:32.529Z,11.20
2022-12-31T11:57:36.492Z,11.36
2022-12-31T12:02:43.145Z,11.52
2022-12-31T12:07:46.660Z,11.44
2022-12-31T12:12:48.893Z,11.46
2022-12-31T12:17:53.952Z,11.51
2022-12-31T12:22:59.446Z,11.60
2022-12-31T12:28:11.501Z,11.69
2022-12-31T12:33:18.307Z,11.70
2022-12-31T12:38:23.145Z,11.69
2022-12-31T12:43:27.300Z,11.51
2022-12-31T12:48:36.782Z,11.47
2022-12-31T12:53:50.445Z,11.57
2022-12-31T12:59:08.745Z,11.42
2022-12-31T13:04:40.849Z,11.50
2022-12-31T13:10:03.457Z,11.53
2022-12-31T13:15:16.615Z,11.62
2022-12-31T13:20:26.683Z,11.60
2022-12-31T13:25:38.358Z,11.73
2022-12-31T13:30:43.026Z,11.76
2022-12-31T13:35:51.467Z,11.84
2022-12-31T13:41:01.348Z,11.86
2022-12-31T13:46:10.646Z,12.03
2022-12-31T13:51:18.801Z,12.11
2022-12-31T13:56:25.885Z,12.20
2022-12-31T14:01:34.273Z,12.23
2022-12-31T14:06:41.497Z,12.24
2022-12-31T14:11:58.401Z,11.99
2022-12-31T14:17:08.616Z,11.97
2022-12-31T14:22:19.648Z,11.93
2022-12-31T14:27:28.794Z,11.99
2022-12-31T14:32:38.943Z,12.16
2022-12-31T14:37:48.453Z,12.20
2022-12-31T14:43:02.397Z,12.23
2022-12-31T14:48:17.124Z,12.30
2022-12-31T14:53:23.822Z,12.27
2022-12-31T14:58:33.198Z,12.23
2022-12-31T15:03:44.700Z,12.29
2022-12-31T15:08:56.005Z,12.32
2022-12-31T15:14:36.828Z,12.70
2022-12-31T15:20:16.867Z,12.86
2022-12-31T15:25:24.156Z,13.01
2022-12-31T15:30:39.845Z,12.92
2022-12-31T15:35:48.569Z,12.65
2022-12-31T15:40:52.460Z,12.94
2022-12-31T15:45:57.650Z,12.99
2022-12-31T15:51:01.453Z,12.95
2022-12-31T15:56:04.871Z,12.81
2022-12-31T16:01:14.948Z,12.92
2022-12-31T16:06:17.575Z,12.78
2022-12-31T16:11:19.653Z,12.62
2022-12-31T16:16:24.772Z,12.51
2022-12-31T16:21:32.534Z,12.33
2022-12-31T16:26:43.765Z,12.29
2022-12-31T16:31:48.979Z,12.18
2022-12-31T16:37:02.101Z,12.19
2022-12-31T16:42:16.627Z,12.20
2022-12-31T16:47:23.810Z,12.36
2022-12-31T16:52:30.707Z,12.74
2022-12-31T16:57:32.752Z,12.92
2022-12-31T17:02:39.255Z,13.08
2022-12-31T17:07:42.571Z,12.95
2022-12-31T17:13:25.421Z,12.94
2022-12-31T17:18:17.348Z,13.17
2022-12-31T17:23:25.232Z,13.08
2022-12-31T17:28:32.564Z,12.96
2022-12-31T17:33:35.901Z,12.73
2022-12-31T17:38:37.935Z,12.52
2022-12-31T17:43:41.008Z,12.85
2022-12-31T17:48:49.363Z,12.62
2022-12-31T17:53:51.507Z,12.77
2022-12-31T17:58:54.231Z,12.70
2022-12-31T18:03:57.560Z,12.98
2022-12-31T18:08:59.630Z,12.90
2022-12-31T18:14:01.894Z,13.12
2022-12-31T18:19:23.531Z,12.89
2022-12-31T18:24:35.157Z,13.09
2022-12-31T18:29:37.128Z,13.12
2022-12-31T18:34:40.511Z,13.18
2022-12-31T18:39:42.524Z,13.33
2022-12-31T18:44:44.900Z,13.86
2022-12-31T18:49:48.666Z,13.53
2022-12-31T18:54:50.747Z,13.63
2022-12-31T18:59:52.716Z,13.51
2022-12-31T19:04:56.043Z,13.13
2022-12-31T19:09:58.590Z,12.88
2022-12-31T19:15:00.791Z,13.40
2022-12-31T19:20:05.017Z,13.74
2022-12-31T19:25:17.165Z,13.76
2022-12-31T19:30:23.199Z,13.52
2022-12-31T19:35:27.458Z,13.47
2022-12-31T19:40:31.328Z,14.00
2022-12-31T19:45:33.412Z,13.85
2022-12-31T19:50:36.853Z,13.93
2022-12-31T19:55:39.075Z,13.91
2022-12-31T20:00:49.657Z,13.71
2022-12-31T20:06:06.259Z,13.91
2022-12-31T20:11:11.229Z,13.88
2022-12-31T20:16:15.494Z,13.81
2022-12-31T20:21:21.081Z,14.03
2022-12-31T20:26:24.757Z,14.00
2022-12-31T20:31:27.128Z,13.70
2022-12-31T20:36:30.683Z,13.70
2022-12-31T20:41:33.010Z,13.31
2022-12-31T20:46:35.405Z,13.51
2022-12-31T20:51:38.765Z,13.28
2022-12-31T20:56:41.666Z,13.24
2022-12-31T21:02:19.434Z,13.27
2022-12-31T21:07:07.203Z,13.39
2022-12-31T21:12:28.948Z,13.61
2022-12-31T21:17:30.900Z,13.45
2022-12-31T21:22:34.304Z,13.81
2022-12-31T21:27:36.459Z,13.60
2022-12-31T21:32:38.469Z,13.42
2022-12-31T21:37:58.953Z,13.42
2022-12-31T21:43:02.511Z,13.48
2022-12-31T21:48:20.352Z,13.63
2022-12-31T21:53:30.547Z,13.60
2022-12-31T21:58:37.157Z,13.63
2022-12-31T22:03:39.496Z,13.33
2022-12-31T22:08:44.558Z,13.40
2022-12-31T22:13:47.444Z,13.43
2022-12-31T22:18:49.867Z,13.87
2022-12-31T22:23:55.345Z,13.81
2022-12-31T22:28:59.320Z,13.91
2022-12-31T22:34:01.990Z,14.11
2022-12-31T22:39:05.377Z,14.16
2022-12-31T22:44:08.321Z,14.03
2022-12-31T22:49:10.510Z,14.15
2022-12-31T22:54:14.701Z,14.41
2022-12-31T22:59:17.337Z,14.27
2022-12-31T23:04:19.303Z,14.57
2022-12-31T23:09:41.248Z,14.72
2022-12-31T23:15:01.905Z,14.69
2022-12-31T23:20:24.271Z,14.73
2022-12-31T23:25:27.594Z,14.51
2022-12-31T23:30:29.560Z,14.38
2022-12-31T23:35:31.555Z,14.24
2022-12-31T23:40:34.911Z,13.97
2022-12-31T23:45:37.016Z,13.94
2022-12-31T23:50:40.104Z,13.92
2022-12-31T23:55:43.435Z,14.05
